createdAt,value
2019-02-07T00:01:41.673Z,100310.14
2019-02-07T00:05:48.912Z,100313.33
2019-02-07T00:09:56.602Z,100315.76
2019-02-07T00:14:03.903Z,100312.15
2019-02-07T00:18:11.346Z,100310.32
2019-02-07T00:22:18.788Z,100297.33
2019-02-07T00:26:30.351Z,100288.86
2019-02-07T00:30:38.425Z,100285.83
2019-02-07T00:34:46.042Z,100294.08
2019-02-07T00:38:53.504Z,100285.25
2019-02-07T00:43:02.132Z,100277.23
2019-02-07T00:47:09.827Z,100273.70
2019-02-07T00:51:17.460Z,100264.96
2019-02-07T00:55:24.566Z,100263.08
2019-02-07T00:59:31.440Z,100256.03
2019-02-07T01:03:38.418Z,100260.09
2019-02-07T01:07:45.972Z,100252.46
2019-02-07T01:11:53.858Z,100245.74
2019-02-07T01:16:00.694Z,100243.71
2019-02-07T01:20:10.910Z,100231.36
2019-02-07T01:24:17.798Z,100230.81
2019-02-07T01:28:24.733Z,100227.73
2019-02-07T01:32:31.582Z,100226.38
2019-02-07T01:36:38.399Z,100222.12
2019-02-07T01:40:45.479Z,100218.32
2019-02-07T01:44:52.388Z,100207.78
2019-02-07T01:48:59.275Z,100194.61
2019-02-07T01:53:06.546Z,100191.28
2019-02-07T01:57:13.903Z,100184.82
2019-02-07T02:01:21.280Z,100179.48
2019-02-07T02:05:35.973Z,100176.02
2019-02-07T02:09:42.879Z,100164.59
2019-02-07T02:13:49.705Z,100157.66
2019-02-07T02:17:56.644Z,100165.66
2019-02-07T02:22:03.940Z,100165.69
2019-02-07T02:26:10.795Z,100166.26
2019-02-07T02:30:25.703Z,100160.95
2019-02-07T02:34:32.561Z,100165.17
2019-02-07T02:38:39.561Z,100138.02
2019-02-07T02:42:46.898Z,100134.99
2019-02-07T02:46:53.778Z,100128.39
2019-02-07T02:51:00.869Z,100120.00
2019-02-07T02:55:09.056Z,100116.00
2019-02-07T02:59:15.938Z,100094.30
2019-02-07T03:03:48.439Z,100096.53
2019-02-07T03:08:16.966Z,100085.34
2019-02-07T03:12:43.915Z,100076.70
2019-02-07T03:17:12.715Z,100064.22
2019-02-07T03:21:32.946Z,100055.20
2019-02-07T03:26:03.689Z,100052.33
2019-02-07T03:30:33.381Z,100034.58
2019-02-07T03:35:01.996Z,100035.88
2019-02-07T03:39:28.463Z,100041.14
2019-02-07T03:43:51.917Z,100038.39
2019-02-07T03:48:20.694Z,100045.66
2019-02-07T03:52:55.412Z,100037.80
2019-02-07T03:57:16.133Z,100036.98
2019-02-07T04:01:42.228Z,100036.41
2019-02-07T04:06:07.049Z,100029.15
2019-02-07T04:10:24.150Z,100020.98
2019-02-07T04:14:59.381Z,100007.65
2019-02-07T04:19:31.585Z,100005.11
2019-02-07T04:24:06.766Z,99997.17
2019-02-07T04:28:32.432Z,99973.52
2019-02-07T04:32:57.535Z,99965.20
2019-02-07T04:37:26.173Z,99963.13
2019-02-07T04:41:45.642Z,99958.47
2019-02-07T04:46:26.409Z,99961.30
2019-02-07T04:50:44.322Z,99965.51
2019-02-07T04:54:59.905Z,99962.05
2019-02-07T04:59:27.315Z,99960.52
2019-02-07T05:04:05.460Z,99944.70
2019-02-07T05:08:33.385Z,99938.86
2019-02-07T05:13:12.119Z,99950.98
2019-02-07T05:17:29.335Z,99931.02
2019-02-07T05:21:54.093Z,99935.18
2019-02-07T05:26:12.784Z,99935.96
2019-02-07T05:30:29.824Z,99929.62
2019-02-07T05:35:07.651Z,99924.15
2019-02-07T05:39:33.476Z,99929.78
2019-02-07T05:43:57.845Z,99911.11
2019-02-07T05:48:21.834Z,99907.11
2019-02-07T05:53:02.643Z,99914.72
2019-02-07T05:57:27.392Z,99917.31
2019-02-07T06:01:51.829Z,99908.67
2019-02-07T06:06:16.577Z,99911.52
2019-02-07T06:11:08.916Z,99908.03
2019-02-07T06:15:37.752Z,99898.75
2019-02-07T06:20:13.297Z,99895.81
2019-02-07T06:24:54.839Z,99879.19
2019-02-07T06:29:20.010Z,99881.77
2019-02-07T06:33:44.487Z,99876.24
2019-02-07T06:37:59.492Z,99882.67
2019-02-07T06:42:23.553Z,99878.58
2019-02-07T06:46:58.762Z,99891.87
2019-02-07T06:51:27.857Z,99879.88
2019-02-07T06:55:54.565Z,99872.20
2019-02-07T07:00:34.155Z,99872.30
2019-02-07T07:05:00.136Z,99868.11
2019-02-07T07:09:36.790Z,99857.13
2019-02-07T07:14:11.801Z,99870.13
2019-02-07T07:18:46.824Z,99871.24
2019-02-07T07:23:21.882Z,99865.92
2019-02-07T07:27:56.543Z,99869.69
2019-02-07T07:32:21.479Z,99866.54
2019-02-07T07:36:50.080Z,99851.72
2019-02-07T07:41:34.083Z,99845.58
2019-02-07T07:45:58.749Z,99845.78
2019-02-07T07:50:26.224Z,99845.06
2019-02-07T07:54:42.845Z,99832.47
2019-02-07T07:59:07.145Z,99850.75
2019-02-07T08:03:41.977Z,99840.69
2019-02-07T08:08:07.113Z,99827.80
2019-02-07T08:12:44.927Z,99838.41
2019-02-07T08:17:15.228Z,99837.98
2019-02-07T08:21:49.424Z,99834.27
2019-02-07T08:26:13.475Z,99832.84
2019-02-07T08:30:54.566Z,99842.83
2019-02-07T08:35:11.532Z,99830.02
2019-02-07T08:39:38.336Z,99820.16
2019-02-07T08:44:07.148Z,99822.73
2019-02-07T08:48:38.836Z,99823.93
2019-02-07T08:53:10.745Z,99803.80
2019-02-07T08:57:40.257Z,99806.49
2019-02-07T09:02:06.039Z,99793.11
2019-02-07T09:06:31.793Z,99800.42
2019-02-07T09:11:03.834Z,99792.99
2019-02-07T09:15:27.330Z,99789.55
2019-02-07T09:19:55.858Z,99780.37
2019-02-07T09:24:20.593Z,99777.79
2019-02-07T09:28:45.096Z,99777.34
2019-02-07T09:33:23.406Z,99799.52
2019-02-07T09:37:48.930Z,99798.34
2019-02-07T09:42:13.256Z,99812.48
2019-02-07T09:46:38.129Z,99804.43
2019-02-07T09:50:58.261Z,99791.11
2019-02-07T09:55:19.716Z,99794.70
2019-02-07T09:59:57.834Z,99790.84
2019-02-07T10:04:11.202Z,99787.25
2019-02-07T10:08:35.817Z,99792.41
2019-02-07T10:13:07.049Z,99788.45
2019-02-07T10:17:27.955Z,99782.05
2019-02-07T10:22:06.480Z,99769.20
2019-02-07T10:26:31.167Z,99760.91
2019-02-07T10:31:02.880Z,99761.27
2019-02-07T10:35:27.765Z,99773.42
2019-02-07T10:39:59.147Z,99764.70
2019-02-07T10:44:23.738Z,99782.88
2019-02-07T10:48:44.756Z,99775.78
2019-02-07T10:53:13.642Z,99773.23
2019-02-07T10:57:34.396Z,99775.06
2019-02-07T11:02:09.535Z,99777.11
2019-02-07T11:06:44.061Z,99765.47
2019-02-07T11:11:21.856Z,99764.86
2019-02-07T11:16:05.956Z,99762.20
2019-02-07T11:20:30.977Z,99754.75
2019-02-07T11:24:54.762Z,99763.21
2019-02-07T11:29:19.333Z,99756.03
2019-02-07T11:33:44.124Z,99743.00
2019-02-07T11:38:22.249Z,99733.05
2019-02-07T11:42:47.983Z,99730.95
2019-02-07T11:47:22.797Z,99719.99
2019-02-07T11:51:48.383Z,99720.48
2019-02-07T11:56:12.623Z,99715.59
2019-02-07T12:00:36.148Z,99713.11
2019-02-07T12:05:02.087Z,99708.70
2019-02-07T12:09:28.811Z,99702.50
2019-02-07T12:13:58.052Z,99697.61
2019-02-07T12:18:36.195Z,99696.97
2019-02-07T12:23:15.186Z,99695.17
2019-02-07T12:27:31.780Z,99708.77
2019-02-07T12:32:00.660Z,99716.27
2019-02-07T12:36:29.426Z,99699.59
2019-02-07T12:40:55.702Z,99692.72
2019-02-07T12:45:32.658Z,99690.77
2019-02-07T12:50:03.067Z,99687.48
2019-02-07T12:54:35.206Z,99686.16
2019-02-07T12:59:19.510Z,99688.46
2019-02-07T13:04:03.896Z,99667.19
2019-02-07T13:08:38.916Z,99666.19
2019-02-07T13:13:04.646Z,99661.61
2019-02-07T13:17:45.943Z,99652.11
2019-02-07T13:22:14.807Z,99654.41
2019-02-07T13:26:33.004Z,99650.80
2019-02-07T13:31:02.009Z,99652.11
2019-02-07T13:35:27.374Z,99662.76
2019-02-07T13:39:46.443Z,99666.52
2019-02-07T13:44:18.379Z,99671.09
2019-02-07T13:48:50.189Z,99679.26
2019-02-07T13:53:09.098Z,99680.53
2019-02-07T13:57:47.103Z,99687.59
2019-02-07T14:02:12.218Z,99688.05
2019-02-07T14:06:47.859Z,99701.61
2019-02-07T14:11:16.505Z,99706.72
2019-02-07T14:15:45.225Z,99703.81
2019-02-07T14:20:14.366Z,99703.09
2019-02-07T14:24:40.280Z,99703.42
2019-02-07T14:29:09.430Z,99709.20
2019-02-07T14:33:47.420Z,99712.88
2019-02-07T14:38:28.403Z,99715.16
2019-02-07T14:43:00.101Z,99706.92
2019-02-07T14:47:07.064Z,99714.85
2019-02-07T14:51:14.755Z,99712.80
2019-02-07T14:55:21.909Z,99711.61
2019-02-07T14:59:28.959Z,99708.88
2019-02-07T15:03:37.516Z,99723.28
2019-02-07T15:07:44.531Z,99730.47
2019-02-07T15:11:51.643Z,99716.64
2019-02-07T15:15:58.750Z,99696.16
2019-02-07T15:20:07.034Z,99704.53
2019-02-07T15:24:14.546Z,99709.73
2019-02-07T15:28:21.891Z,99714.22
2019-02-07T15:32:29.457Z,99709.83
2019-02-07T15:36:37.191Z,99717.58
2019-02-07T15:40:45.045Z,99712.63
2019-02-07T15:44:53.700Z,99714.58
2019-02-07T15:49:02.840Z,99711.45
2019-02-07T15:53:11.299Z,99717.30
2019-02-07T15:57:18.814Z,99717.78
2019-02-07T16:01:43.286Z,99712.21
2019-02-07T16:05:50.876Z,99715.11
2019-02-07T16:09:58.010Z,99713.97
2019-02-07T16:14:06.571Z,99719.09
2019-02-07T16:18:13.828Z,99730.53
2019-02-07T16:22:22.094Z,99745.16
2019-02-07T16:26:32.744Z,99742.57
2019-02-07T16:30:40.297Z,99744.56
2019-02-07T16:34:47.301Z,99752.58
2019-02-07T16:38:55.841Z,99766.26
2019-02-07T16:43:04.119Z,99779.22
2019-02-07T16:47:12.070Z,99785.95
2019-02-07T16:51:19.618Z,99789.40
2019-02-07T16:55:27.457Z,99784.54
2019-02-07T16:59:35.530Z,99787.42
2019-02-07T17:03:43.514Z,99790.87
2019-02-07T17:07:55.877Z,99793.49
2019-02-07T17:12:04.865Z,99796.55
2019-02-07T17:16:12.483Z,99801.19
2019-02-07T17:20:27.546Z,99801.50
2019-02-07T17:24:34.616Z,99808.23
2019-02-07T17:28:43.364Z,99813.66
2019-02-07T17:32:51.075Z,99810.37
2019-02-07T17:36:58.807Z,99817.12
2019-02-07T17:41:06.365Z,99817.65
2019-02-07T17:45:23.544Z,99818.32
2019-02-07T17:49:39.114Z,99818.14
2019-02-07T17:53:48.120Z,99825.52
2019-02-07T17:57:56.478Z,99828.00
2019-02-07T18:02:07.120Z,99824.23
2019-02-07T18:06:14.467Z,99818.37
2019-02-07T18:10:22.027Z,99822.45
2019-02-07T18:14:41.781Z,99817.52
2019-02-07T18:19:19.915Z,99824.43
2019-02-07T18:23:30.851Z,99825.09
2019-02-07T18:27:37.846Z,99823.44
2019-02-07T18:31:45.056Z,99827.70
2019-02-07T18:35:52.350Z,99826.38
2019-02-07T18:39:59.505Z,99833.27
2019-02-07T18:44:07.105Z,99836.04
2019-02-07T18:48:14.428Z,99846.72
2019-02-07T18:52:22.264Z,99847.19
2019-02-07T18:56:30.876Z,99859.46
2019-02-07T19:00:39.302Z,99867.02
2019-02-07T19:04:46.503Z,99870.28
2019-02-07T19:08:53.919Z,99876.84
2019-02-07T19:13:03.848Z,99884.72
2019-02-07T19:17:10.939Z,99887.00
2019-02-07T19:21:18.139Z,99891.08
2019-02-07T19:25:25.604Z,99887.14
2019-02-07T19:29:34.313Z,99890.91
2019-02-07T19:33:44.008Z,99894.34
2019-02-07T19:37:51.386Z,99898.28
2019-02-07T19:41:58.558Z,99906.37
2019-02-07T19:46:05.913Z,99906.06
2019-02-07T19:50:18.736Z,99907.36
2019-02-07T19:54:25.957Z,99899.50
2019-02-07T19:58:33.580Z,99913.28
2019-02-07T20:02:41.116Z,99907.70
2019-02-07T20:06:50.474Z,99918.20
2019-02-07T20:10:57.441Z,99914.27
2019-02-07T20:15:19.810Z,99909.50
2019-02-07T20:19:27.044Z,99912.64
2019-02-07T20:23:34.477Z,99919.36
2019-02-07T20:27:41.508Z,99915.72
2019-02-07T20:31:48.555Z,99917.70
2019-02-07T20:35:56.660Z,99910.80
2019-02-07T20:40:05.195Z,99911.65
2019-02-07T20:44:14.018Z,99920.15
2019-02-07T20:48:21.376Z,99922.95
2019-02-07T20:52:28.407Z,99917.86
2019-02-07T20:56:37.402Z,99924.75
2019-02-07T21:00:47.559Z,99915.88
2019-02-07T21:04:54.551Z,99920.81
2019-02-07T21:09:07.913Z,99926.06
2019-02-07T21:13:20.619Z,99928.70
2019-02-07T21:17:27.539Z,99926.56
2019-02-07T21:21:36.347Z,99939.83
2019-02-07T21:25:51.286Z,99947.70
2019-02-07T21:29:58.196Z,99940.17
2019-02-07T21:34:06.960Z,99948.03
2019-02-07T21:38:17.106Z,99947.70
2019-02-07T21:42:23.988Z,99948.70
2019-02-07T21:46:35.975Z,99952.46
2019-02-07T21:50:43.874Z,99964.94
2019-02-07T21:54:50.951Z,99984.78
2019-02-07T21:58:58.146Z,99987.42
2019-02-07T22:03:08.808Z,99995.30
2019-02-07T22:07:15.820Z,100013.97
2019-02-07T22:11:25.968Z,100036.30
2019-02-07T22:15:35.225Z,100039.92
2019-02-07T22:19:42.168Z,100040.73
2019-02-07T22:23:49.275Z,100047.32
2019-02-07T22:27:56.474Z,100049.28
2019-02-07T22:32:03.739Z,100042.23
2019-02-07T22:36:11.471Z,100047.64
2019-02-07T22:40:21.531Z,100054.36
2019-02-07T22:44:28.414Z,100056.34
2019-02-07T22:48:36.419Z,100063.87
2019-02-07T22:52:43.231Z,100065.02
2019-02-07T22:56:51.146Z,100068.48
2019-02-07T23:01:59.676Z,100074.04
2019-02-07T23:06:07.073Z,100079.98
2019-02-07T23:10:13.961Z,100080.64
2019-02-07T23:14:21.049Z,100078.65
2019-02-07T23:18:27.911Z,100074.73
2019-02-07T23:22:34.716Z,100071.11
2019-02-07T23:26:41.555Z,100080.31
2019-02-07T23:30:48.545Z,100077.69
2019-02-07T23:34:56.454Z,100076.03
2019-02-07T23:39:06.848Z,100079.31
2019-02-07T23:43:15.833Z,100074.22
2019-02-07T23:47:22.719Z,100074.55
2019-02-07T23:51:30.389Z,100082.27
2019-02-07T23:55:37.513Z,100082.25
2019-02-07T23:59:45.944Z,100081.09
